T82 SAZN-SAVC
Flight info
| Callsign | T82 |
|---|---|
| Flight time | 2h 20m |
| Altitude | 11000 |
| Route | DCT ILTOS T105 CRV |
| Aircraft | DHC6/L-S/C |
Departure
| Time | 2026-04-26 13:05 |
|---|---|
| Airport | Presidente Perón International Airport (SAZN) |
Arrival
| Time | 2026-04-26 15:25 |
|---|---|
| Airport | General Enrique Mosconi International Airport (SAVC) |
| Time | Latitude | Longitude | Altitude | Speed | Heading |
|---|---|---|---|---|---|
| 2026-04-26 13:01 | -38.95151 | -68.14173 | 905 ft | 0 kts | 89° |
| 2026-04-26 13:02 | -38.95151 | -68.14172 | 905 ft | 0 kts | 89° |
| 2026-04-26 13:02 | -38.95147 | -68.14164 | 905 ft | 3 kts | 30° |
| 2026-04-26 13:03 | -38.95102 | -68.14143 | 905 ft | 6 kts | 77° |
| 2026-04-26 13:03 | -38.95020 | -68.14112 | 905 ft | 20 kts | 0° |
| 2026-04-26 13:03 | -38.94911 | -68.14169 | 905 ft | 7 kts | 267° |
| 2026-04-26 13:03 | -38.94910 | -68.14190 | 905 ft | 12 kts | 270° |
| 2026-04-26 13:04 | -38.94908 | -68.14441 | 905 ft | 43 kts | 270° |
| 2026-04-26 13:04 | -38.94904 | -68.14938 | 906 ft | 65 kts | 270° |
| 2026-04-26 13:04 | -38.94901 | -68.15676 | 953 ft | 101 kts | 270° |
| 2026-04-26 13:04 | -38.94889 | -68.16662 | 1179 ft | 124 kts | 271° |
| 2026-04-26 13:05 | -38.95225 | -68.17765 | 1244 ft | 146 kts | 225° |
| 2026-04-26 13:05 | -38.96181 | -68.18153 | 1432 ft | 150 kts | 174° |
| 2026-04-26 13:05 | -38.97131 | -68.17714 | 1808 ft | 140 kts | 155° |
| 2026-04-26 13:05 | -38.98001 | -68.17175 | 2188 ft | 138 kts | 154° |
| 2026-04-26 13:06 | -38.98879 | -68.16632 | 2533 ft | 141 kts | 154° |
| 2026-04-26 13:06 | -38.99775 | -68.16087 | 2891 ft | 143 kts | 155° |
| 2026-04-26 13:06 | -39.00702 | -68.15616 | 3252 ft | 144 kts | 162° |
| 2026-04-26 13:06 | -39.01671 | -68.15285 | 3614 ft | 144 kts | 168° |
| 2026-04-26 13:07 | -39.02648 | -68.15059 | 3974 ft | 145 kts | 171° |
| 2026-04-26 13:07 | -39.03649 | -68.14890 | 4339 ft | 145 kts | 173° |
| 2026-04-26 13:07 | -39.04660 | -68.14755 | 4705 ft | 146 kts | 174° |
| 2026-04-26 13:07 | -39.05673 | -68.14640 | 5069 ft | 146 kts | 175° |
| 2026-04-26 13:08 | -39.06687 | -68.14535 | 5434 ft | 147 kts | 175° |
| 2026-04-26 13:08 | -39.07707 | -68.14435 | 5798 ft | 147 kts | 175° |
| 2026-04-26 13:08 | -39.08732 | -68.14339 | 6163 ft | 147 kts | 176° |
| 2026-04-26 13:08 | -39.09758 | -68.14244 | 6526 ft | 148 kts | 176° |
| 2026-04-26 13:09 | -39.10774 | -68.14150 | 6884 ft | 148 kts | 176° |
| 2026-04-26 13:09 | -39.11806 | -68.14056 | 7247 ft | 149 kts | 176° |
| 2026-04-26 13:09 | -39.12843 | -68.13962 | 7610 ft | 149 kts | 176° |
| 2026-04-26 13:09 | -39.13880 | -68.13869 | 7971 ft | 149 kts | 176° |
| 2026-04-26 13:10 | -39.14907 | -68.13778 | 8327 ft | 150 kts | 176° |
| 2026-04-26 13:10 | -39.15964 | -68.13683 | 8692 ft | 150 kts | 176° |
| 2026-04-26 13:10 | -39.17010 | -68.13589 | 9051 ft | 151 kts | 176° |
| 2026-04-26 13:10 | -39.18057 | -68.13494 | 9409 ft | 151 kts | 176° |
| 2026-04-26 13:11 | -39.19109 | -68.13399 | 9765 ft | 151 kts | 176° |
| 2026-04-26 13:11 | -39.20141 | -68.13305 | 10112 ft | 151 kts | 176° |
| 2026-04-26 13:11 | -39.21192 | -68.13210 | 10460 ft | 151 kts | 176° |
| 2026-04-26 13:11 | -39.22240 | -68.13114 | 10805 ft | 151 kts | 176° |
| 2026-04-26 13:12 | -39.23286 | -68.13019 | 11122 ft | 153 kts | 176° |
| 2026-04-26 13:12 | -39.24416 | -68.12917 | 11128 ft | 172 kts | 176° |
| 2026-04-26 13:12 | -39.25634 | -68.12806 | 11111 ft | 183 kts | 176° |
| 2026-04-26 13:12 | -39.26945 | -68.12686 | 11105 ft | 188 kts | 176° |
| 2026-04-26 13:13 | -39.28261 | -68.12566 | 11102 ft | 191 kts | 176° |
| 2026-04-26 13:13 | -39.29577 | -68.12446 | 11101 ft | 192 kts | 176° |
| 2026-04-26 13:13 | -39.30920 | -68.12324 | 11101 ft | 193 kts | 176° |
| 2026-04-26 13:13 | -39.32263 | -68.12203 | 11100 ft | 194 kts | 176° |
| 2026-04-26 13:14 | -39.33610 | -68.12082 | 11100 ft | 194 kts | 176° |
| 2026-04-26 13:14 | -39.34958 | -68.11961 | 11100 ft | 194 kts | 176° |
| 2026-04-26 13:14 | -39.36305 | -68.11839 | 11100 ft | 194 kts | 176° |
| 2026-04-26 13:14 | -39.37654 | -68.11716 | 11100 ft | 194 kts | 176° |
| 2026-04-26 13:15 | -39.39006 | -68.11593 | 11100 ft | 194 kts | 176° |
| 2026-04-26 13:15 | -39.40337 | -68.11471 | 11100 ft | 194 kts | 176° |
| 2026-04-26 13:15 | -39.41708 | -68.11346 | 11100 ft | 194 kts | 176° |
| 2026-04-26 13:15 | -39.43044 | -68.11224 | 11100 ft | 194 kts | 176° |
| 2026-04-26 13:16 | -39.44393 | -68.11100 | 11100 ft | 195 kts | 176° |
| 2026-04-26 13:16 | -39.45748 | -68.10974 | 11100 ft | 195 kts | 176° |
| 2026-04-26 13:16 | -39.47100 | -68.10848 | 11100 ft | 195 kts | 176° |
| 2026-04-26 13:16 | -39.48457 | -68.10721 | 11100 ft | 195 kts | 176° |
| 2026-04-26 13:17 | -39.51140 | -68.10473 | 11100 ft | 195 kts | 176° |
| 2026-04-26 13:17 | -39.52496 | -68.10349 | 11100 ft | 195 kts | 176° |
| 2026-04-26 13:18 | -39.55208 | -68.10098 | 11100 ft | 195 kts | 176° |
| 2026-04-26 13:18 | -39.56541 | -68.09974 | 11100 ft | 195 kts | 176° |
| 2026-04-26 13:18 | -39.59250 | -68.09722 | 11100 ft | 195 kts | 176° |
| 2026-04-26 13:19 | -39.60609 | -68.09595 | 11100 ft | 195 kts | 176° |
| 2026-04-26 13:19 | -39.61956 | -68.09468 | 11100 ft | 195 kts | 176° |
| 2026-04-26 13:19 | -39.63313 | -68.09341 | 11100 ft | 195 kts | 176° |
| 2026-04-26 13:19 | -39.64663 | -68.09215 | 11100 ft | 195 kts | 176° |
| 2026-04-26 13:20 | -39.66015 | -68.09088 | 11100 ft | 195 kts | 176° |
| 2026-04-26 13:20 | -39.67352 | -68.08963 | 11100 ft | 195 kts | 176° |
| 2026-04-26 13:20 | -39.68704 | -68.08836 | 11100 ft | 195 kts | 176° |
| 2026-04-26 13:20 | -39.70056 | -68.08711 | 11100 ft | 195 kts | 176° |
| 2026-04-26 13:21 | -39.71410 | -68.08587 | 11100 ft | 195 kts | 176° |
| 2026-04-26 13:21 | -39.72304 | -68.08504 | 11100 ft | 195 kts | 176° |
| 2026-04-26 13:21 | -39.74116 | -68.08335 | 11100 ft | 195 kts | 176° |
| 2026-04-26 13:21 | -39.75473 | -68.08208 | 11100 ft | 195 kts | 176° |
| 2026-04-26 13:22 | -39.76824 | -68.08082 | 11100 ft | 195 kts | 176° |
| 2026-04-26 13:22 | -39.78157 | -68.07956 | 11100 ft | 195 kts | 176° |
| 2026-04-26 13:22 | -39.79514 | -68.07829 | 11100 ft | 195 kts | 176° |
| 2026-04-26 13:22 | -39.80870 | -68.07705 | 11100 ft | 195 kts | 176° |
| 2026-04-26 13:23 | -39.82220 | -68.07583 | 11100 ft | 195 kts | 176° |
| 2026-04-26 13:23 | -39.83578 | -68.07460 | 11100 ft | 195 kts | 176° |
| 2026-04-26 13:23 | -39.84927 | -68.07339 | 11100 ft | 195 kts | 176° |
| 2026-04-26 13:23 | -39.86280 | -68.07218 | 11100 ft | 195 kts | 176° |
| 2026-04-26 13:24 | -39.87634 | -68.07097 | 11100 ft | 195 kts | 176° |
| 2026-04-26 13:24 | -39.88991 | -68.06978 | 11100 ft | 195 kts | 176° |
| 2026-04-26 13:24 | -39.90342 | -68.06860 | 11100 ft | 195 kts | 176° |
| 2026-04-26 13:24 | -39.91699 | -68.06740 | 11100 ft | 195 kts | 176° |
| 2026-04-26 13:25 | -39.93047 | -68.06621 | 11100 ft | 193 kts | 176° |
| 2026-04-26 13:25 | -39.94373 | -68.06503 | 11099 ft | 190 kts | 176° |
| 2026-04-26 13:25 | -39.95684 | -68.06386 | 11099 ft | 188 kts | 176° |
| 2026-04-26 13:25 | -39.96984 | -68.06270 | 11099 ft | 187 kts | 176° |
| 2026-04-26 13:26 | -39.98286 | -68.06154 | 11100 ft | 187 kts | 176° |
| 2026-04-26 13:26 | -39.99583 | -68.06038 | 11100 ft | 186 kts | 176° |
| 2026-04-26 13:26 | -40.00879 | -68.05922 | 11100 ft | 186 kts | 176° |
| 2026-04-26 13:26 | -40.02159 | -68.05807 | 11100 ft | 186 kts | 176° |
| 2026-04-26 13:27 | -40.03455 | -68.05691 | 11100 ft | 186 kts | 176° |
| 2026-04-26 13:27 | -40.04747 | -68.05575 | 11100 ft | 186 kts | 176° |
| 2026-04-26 13:27 | -40.06046 | -68.05459 | 11100 ft | 187 kts | 176° |
| 2026-04-26 13:27 | -40.07348 | -68.05344 | 11100 ft | 187 kts | 176° |
| 2026-04-26 13:28 | -40.08649 | -68.05230 | 11100 ft | 188 kts | 176° |
| 2026-04-26 13:28 | -40.09955 | -68.05114 | 11100 ft | 188 kts | 176° |
| 2026-04-26 13:28 | -40.11264 | -68.04998 | 11100 ft | 188 kts | 176° |
| 2026-04-26 13:28 | -40.12573 | -68.04881 | 11100 ft | 188 kts | 176° |
| 2026-04-26 13:29 | -40.13883 | -68.04763 | 11100 ft | 188 kts | 176° |
| 2026-04-26 13:29 | -40.14749 | -68.04686 | 11100 ft | 188 kts | 176° |
| 2026-04-26 13:29 | -40.16485 | -68.04530 | 11100 ft | 188 kts | 176° |
| 2026-04-26 13:29 | -40.17772 | -68.04414 | 11100 ft | 188 kts | 176° |
| 2026-04-26 13:30 | -40.19099 | -68.04295 | 11100 ft | 188 kts | 176° |
| 2026-04-26 13:30 | -40.20406 | -68.04177 | 11100 ft | 188 kts | 176° |
| 2026-04-26 13:30 | -40.21716 | -68.04059 | 11100 ft | 188 kts | 176° |
| 2026-04-26 13:30 | -40.23023 | -68.03941 | 11100 ft | 188 kts | 176° |
| 2026-04-26 13:31 | -40.24328 | -68.03824 | 11100 ft | 188 kts | 176° |
| 2026-04-26 13:31 | -40.25642 | -68.03708 | 11100 ft | 188 kts | 176° |
| 2026-04-26 13:31 | -40.26951 | -68.03592 | 11100 ft | 188 kts | 176° |
| 2026-04-26 13:31 | -40.28260 | -68.03475 | 11100 ft | 188 kts | 176° |
| 2026-04-26 13:32 | -40.29125 | -68.03398 | 11100 ft | 188 kts | 176° |
| 2026-04-26 13:32 | -40.30858 | -68.03242 | 11100 ft | 188 kts | 176° |
| 2026-04-26 13:32 | -40.31760 | -68.03161 | 11100 ft | 188 kts | 176° |
| 2026-04-26 13:32 | -40.33067 | -68.03043 | 11100 ft | 188 kts | 176° |
| 2026-04-26 13:33 | -40.34357 | -68.02926 | 11100 ft | 188 kts | 176° |
| 2026-04-26 13:33 | -40.35667 | -68.02808 | 11100 ft | 188 kts | 176° |
| 2026-04-26 13:33 | -40.36976 | -68.02690 | 11100 ft | 188 kts | 176° |
| 2026-04-26 13:33 | -40.38287 | -68.02568 | 11100 ft | 188 kts | 175° |
| 2026-04-26 13:34 | -40.39596 | -68.02437 | 11100 ft | 188 kts | 175° |
| 2026-04-26 13:34 | -40.40888 | -68.02303 | 11100 ft | 188 kts | 175° |
| 2026-04-26 13:34 | -40.42197 | -68.02166 | 11100 ft | 188 kts | 175° |
| 2026-04-26 13:34 | -40.43062 | -68.02076 | 11100 ft | 188 kts | 175° |
| 2026-04-26 13:35 | -40.44828 | -68.01892 | 11100 ft | 188 kts | 175° |
| 2026-04-26 13:35 | -40.46133 | -68.01756 | 11100 ft | 188 kts | 175° |
| 2026-04-26 13:35 | -40.47459 | -68.01616 | 11100 ft | 188 kts | 175° |
| 2026-04-26 13:35 | -40.48766 | -68.01478 | 11100 ft | 188 kts | 175° |
| 2026-04-26 13:36 | -40.50071 | -68.01340 | 11100 ft | 188 kts | 175° |
| 2026-04-26 13:36 | -40.51380 | -68.01201 | 11100 ft | 188 kts | 175° |
| 2026-04-26 13:36 | -40.52688 | -68.01062 | 11100 ft | 188 kts | 175° |
| 2026-04-26 13:36 | -40.53978 | -68.00925 | 11100 ft | 188 kts | 175° |
| 2026-04-26 13:37 | -40.55285 | -68.00785 | 11100 ft | 188 kts | 175° |
| 2026-04-26 13:37 | -40.56596 | -68.00646 | 11100 ft | 188 kts | 175° |
| 2026-04-26 13:37 | -40.57905 | -68.00506 | 11100 ft | 188 kts | 175° |
| 2026-04-26 13:37 | -40.59212 | -68.00367 | 11100 ft | 188 kts | 175° |
| 2026-04-26 13:38 | -40.60508 | -68.00229 | 11100 ft | 188 kts | 175° |
| 2026-04-26 13:38 | -40.61814 | -68.00092 | 11100 ft | 188 kts | 175° |
| 2026-04-26 13:38 | -40.63121 | -67.99954 | 11100 ft | 188 kts | 175° |
| 2026-04-26 13:38 | -40.64428 | -67.99816 | 11100 ft | 188 kts | 175° |
| 2026-04-26 13:39 | -40.65734 | -67.99678 | 11100 ft | 188 kts | 175° |
| 2026-04-26 13:39 | -40.67043 | -67.99538 | 11100 ft | 188 kts | 175° |
| 2026-04-26 13:39 | -40.68354 | -67.99399 | 11100 ft | 188 kts | 175° |
| 2026-04-26 13:39 | -40.69661 | -67.99255 | 11100 ft | 188 kts | 175° |
| 2026-04-26 13:40 | -40.70952 | -67.99106 | 11100 ft | 188 kts | 175° |
| 2026-04-26 13:40 | -40.72264 | -67.98951 | 11100 ft | 188 kts | 175° |
| 2026-04-26 13:40 | -40.73573 | -67.98796 | 11100 ft | 188 kts | 175° |
| 2026-04-26 13:40 | -40.74882 | -67.98640 | 11100 ft | 188 kts | 175° |
| 2026-04-26 13:41 | -40.76171 | -67.98486 | 11100 ft | 188 kts | 175° |
| 2026-04-26 13:41 | -40.77476 | -67.98330 | 11100 ft | 188 kts | 175° |
| 2026-04-26 13:41 | -40.78801 | -67.98171 | 11100 ft | 188 kts | 175° |
| 2026-04-26 13:41 | -40.80089 | -67.98018 | 11100 ft | 188 kts | 175° |
| 2026-04-26 13:42 | -40.81400 | -67.97863 | 11100 ft | 188 kts | 175° |
| 2026-04-26 13:42 | -40.82694 | -67.97710 | 11100 ft | 188 kts | 175° |
| 2026-04-26 13:42 | -40.84008 | -67.97553 | 11100 ft | 188 kts | 175° |
| 2026-04-26 13:42 | -40.85316 | -67.97397 | 11100 ft | 188 kts | 175° |
| 2026-04-26 13:43 | -40.86621 | -67.97240 | 11100 ft | 188 kts | 175° |
| 2026-04-26 13:43 | -40.87927 | -67.97083 | 11100 ft | 188 kts | 175° |
| 2026-04-26 13:43 | -40.89221 | -67.96928 | 11100 ft | 188 kts | 175° |
| 2026-04-26 13:43 | -40.90529 | -67.96771 | 11100 ft | 188 kts | 175° |
| 2026-04-26 13:44 | -40.91836 | -67.96613 | 11100 ft | 188 kts | 175° |
| 2026-04-26 13:44 | -40.93143 | -67.96456 | 11100 ft | 188 kts | 175° |
| 2026-04-26 13:44 | -40.94451 | -67.96298 | 11100 ft | 188 kts | 175° |
| 2026-04-26 13:44 | -40.95762 | -67.96140 | 11100 ft | 188 kts | 175° |
| 2026-04-26 13:45 | -40.97054 | -67.95984 | 11100 ft | 188 kts | 175° |
| 2026-04-26 13:45 | -40.98356 | -67.95829 | 11100 ft | 188 kts | 175° |
| 2026-04-26 13:45 | -40.99664 | -67.95673 | 11100 ft | 188 kts | 175° |
| 2026-04-26 13:45 | -41.00972 | -67.95517 | 11100 ft | 188 kts | 175° |
| 2026-04-26 13:46 | -41.02277 | -67.95361 | 11100 ft | 188 kts | 175° |
| 2026-04-26 13:46 | -41.03588 | -67.95203 | 11100 ft | 188 kts | 175° |
| 2026-04-26 13:46 | -41.04889 | -67.95046 | 11100 ft | 188 kts | 175° |
| 2026-04-26 13:46 | -41.06199 | -67.94888 | 11100 ft | 188 kts | 175° |
| 2026-04-26 13:47 | -41.07490 | -67.94732 | 11100 ft | 188 kts | 175° |
| 2026-04-26 13:47 | -41.08798 | -67.94573 | 11100 ft | 188 kts | 175° |
| 2026-04-26 13:47 | -41.10105 | -67.94415 | 11100 ft | 188 kts | 175° |
| 2026-04-26 13:47 | -41.11414 | -67.94257 | 11100 ft | 188 kts | 175° |
| 2026-04-26 13:48 | -41.12722 | -67.94098 | 11100 ft | 188 kts | 175° |
| 2026-04-26 13:48 | -41.14028 | -67.93940 | 11100 ft | 188 kts | 175° |
| 2026-04-26 13:48 | -41.15332 | -67.93782 | 11100 ft | 188 kts | 175° |
| 2026-04-26 13:48 | -41.16643 | -67.93625 | 11100 ft | 188 kts | 175° |
| 2026-04-26 13:49 | -41.17930 | -67.93471 | 11100 ft | 188 kts | 175° |
| 2026-04-26 13:49 | -41.19238 | -67.93314 | 11100 ft | 188 kts | 175° |
| 2026-04-26 13:49 | -41.20550 | -67.93155 | 11100 ft | 188 kts | 175° |
| 2026-04-26 13:49 | -41.21856 | -67.92997 | 11100 ft | 188 kts | 175° |
| 2026-04-26 13:50 | -41.23165 | -67.92839 | 11100 ft | 188 kts | 175° |
| 2026-04-26 13:50 | -41.24470 | -67.92680 | 11100 ft | 188 kts | 175° |
| 2026-04-26 13:50 | -41.25764 | -67.92523 | 11100 ft | 188 kts | 175° |
| 2026-04-26 13:50 | -41.27085 | -67.92362 | 11100 ft | 188 kts | 175° |
| 2026-04-26 13:51 | -41.28392 | -67.92203 | 11100 ft | 188 kts | 175° |
| 2026-04-26 13:51 | -41.29697 | -67.92044 | 11100 ft | 188 kts | 175° |
| 2026-04-26 13:51 | -41.30990 | -67.91887 | 11100 ft | 188 kts | 175° |
| 2026-04-26 13:51 | -41.32294 | -67.91728 | 11100 ft | 188 kts | 175° |
| 2026-04-26 13:52 | -41.33605 | -67.91568 | 11100 ft | 188 kts | 175° |
| 2026-04-26 13:52 | -41.34914 | -67.91410 | 11100 ft | 188 kts | 175° |
| 2026-04-26 13:52 | -41.36219 | -67.91253 | 11100 ft | 188 kts | 175° |
| 2026-04-26 13:52 | -41.37529 | -67.91095 | 11100 ft | 188 kts | 175° |
| 2026-04-26 13:53 | -41.38835 | -67.90936 | 11100 ft | 188 kts | 175° |
| 2026-04-26 13:53 | -41.40145 | -67.90777 | 11100 ft | 188 kts | 175° |
| 2026-04-26 13:53 | -41.41434 | -67.90620 | 11100 ft | 188 kts | 175° |
| 2026-04-26 13:53 | -41.42746 | -67.90460 | 11100 ft | 188 kts | 175° |
| 2026-04-26 13:54 | -41.44051 | -67.90300 | 11100 ft | 188 kts | 175° |
| 2026-04-26 13:54 | -41.45354 | -67.90141 | 11100 ft | 188 kts | 175° |
| 2026-04-26 13:54 | -41.46665 | -67.89980 | 11100 ft | 188 kts | 175° |
| 2026-04-26 13:55 | -41.49277 | -67.89661 | 11100 ft | 188 kts | 175° |
| 2026-04-26 13:55 | -41.50145 | -67.89555 | 11100 ft | 188 kts | 175° |
| 2026-04-26 13:55 | -41.53212 | -67.89188 | 11100 ft | 188 kts | 175° |
| 2026-04-26 13:56 | -41.54502 | -67.89037 | 11100 ft | 188 kts | 175° |
| 2026-04-26 13:56 | -41.55812 | -67.88885 | 11100 ft | 188 kts | 175° |
| 2026-04-26 13:56 | -41.57118 | -67.88733 | 11100 ft | 188 kts | 175° |
| 2026-04-26 13:56 | -41.58427 | -67.88580 | 11100 ft | 188 kts | 175° |
| 2026-04-26 13:57 | -41.59735 | -67.88427 | 11100 ft | 188 kts | 175° |
| 2026-04-26 13:57 | -41.61041 | -67.88274 | 11100 ft | 188 kts | 175° |
| 2026-04-26 13:57 | -41.62354 | -67.88121 | 11100 ft | 188 kts | 175° |
| 2026-04-26 13:57 | -41.63658 | -67.87968 | 11100 ft | 188 kts | 175° |
| 2026-04-26 13:58 | -41.64952 | -67.87817 | 11100 ft | 188 kts | 175° |
| 2026-04-26 13:58 | -41.66260 | -67.87663 | 11100 ft | 188 kts | 175° |
| 2026-04-26 13:58 | -41.67573 | -67.87509 | 11100 ft | 188 kts | 175° |
| 2026-04-26 13:58 | -41.68880 | -67.87356 | 11100 ft | 188 kts | 175° |
| 2026-04-26 13:59 | -41.70189 | -67.87203 | 11100 ft | 188 kts | 175° |
| 2026-04-26 13:59 | -41.71493 | -67.87052 | 11100 ft | 188 kts | 175° |
| 2026-04-26 13:59 | -41.72800 | -67.86901 | 11100 ft | 188 kts | 175° |
| 2026-04-26 14:00 | -41.76715 | -67.86444 | 11100 ft | 188 kts | 175° |
| 2026-04-26 14:00 | -41.78027 | -67.86291 | 11100 ft | 188 kts | 175° |
| 2026-04-26 14:00 | -41.78896 | -67.86188 | 11100 ft | 188 kts | 175° |
| 2026-04-26 14:01 | -41.80643 | -67.85983 | 11100 ft | 188 kts | 175° |
| 2026-04-26 14:01 | -41.81952 | -67.85829 | 11100 ft | 188 kts | 175° |
| 2026-04-26 14:01 | -41.83258 | -67.85675 | 11100 ft | 188 kts | 175° |
| 2026-04-26 14:01 | -41.84565 | -67.85521 | 11100 ft | 188 kts | 175° |
| 2026-04-26 14:02 | -41.85870 | -67.85368 | 11100 ft | 188 kts | 175° |
| 2026-04-26 14:02 | -41.87181 | -67.85213 | 11100 ft | 188 kts | 175° |
| 2026-04-26 14:02 | -41.88470 | -67.85061 | 11100 ft | 189 kts | 175° |
| 2026-04-26 14:02 | -41.89779 | -67.84909 | 11100 ft | 189 kts | 175° |
| 2026-04-26 14:03 | -41.91105 | -67.84755 | 11100 ft | 189 kts | 175° |
| 2026-04-26 14:03 | -41.92414 | -67.84602 | 11100 ft | 189 kts | 175° |
| 2026-04-26 14:03 | -41.93297 | -67.84498 | 11100 ft | 189 kts | 175° |
| 2026-04-26 14:03 | -41.94589 | -67.84346 | 11100 ft | 189 kts | 175° |
| 2026-04-26 14:04 | -41.95899 | -67.84192 | 11100 ft | 189 kts | 175° |
| 2026-04-26 14:04 | -41.97207 | -67.84037 | 11100 ft | 189 kts | 175° |
| 2026-04-26 14:04 | -41.98515 | -67.83883 | 11100 ft | 189 kts | 175° |
| 2026-04-26 14:04 | -41.99825 | -67.83728 | 11100 ft | 189 kts | 175° |
| 2026-04-26 14:05 | -42.01136 | -67.83573 | 11100 ft | 189 kts | 175° |
| 2026-04-26 14:05 | -42.02439 | -67.83418 | 11100 ft | 189 kts | 175° |
| 2026-04-26 14:05 | -42.03753 | -67.83263 | 11100 ft | 189 kts | 175° |
| 2026-04-26 14:05 | -42.05057 | -67.83108 | 11100 ft | 189 kts | 175° |
| 2026-04-26 14:06 | -42.06364 | -67.82953 | 11100 ft | 189 kts | 175° |
| 2026-04-26 14:06 | -42.07676 | -67.82799 | 11100 ft | 189 kts | 175° |
| 2026-04-26 14:06 | -42.08986 | -67.82646 | 11100 ft | 189 kts | 175° |
| 2026-04-26 14:06 | -42.10277 | -67.82494 | 11100 ft | 189 kts | 175° |
| 2026-04-26 14:07 | -42.11585 | -67.82340 | 11100 ft | 189 kts | 175° |
| 2026-04-26 14:07 | -42.12895 | -67.82185 | 11100 ft | 189 kts | 175° |
| 2026-04-26 14:07 | -42.14205 | -67.82030 | 11100 ft | 189 kts | 175° |
| 2026-04-26 14:07 | -42.15514 | -67.81875 | 11100 ft | 189 kts | 175° |
| 2026-04-26 14:08 | -42.16821 | -67.81719 | 11100 ft | 189 kts | 175° |
| 2026-04-26 14:08 | -42.18129 | -67.81563 | 11100 ft | 189 kts | 175° |
| 2026-04-26 14:08 | -42.19438 | -67.81408 | 11100 ft | 189 kts | 175° |
| 2026-04-26 14:08 | -42.20727 | -67.81254 | 11100 ft | 189 kts | 175° |
| 2026-04-26 14:09 | -42.22042 | -67.81097 | 11100 ft | 189 kts | 175° |
| 2026-04-26 14:09 | -42.23351 | -67.80941 | 11100 ft | 189 kts | 175° |
| 2026-04-26 14:09 | -42.24662 | -67.80785 | 11100 ft | 189 kts | 175° |
| 2026-04-26 14:09 | -42.25971 | -67.80630 | 11100 ft | 189 kts | 175° |
| 2026-04-26 14:10 | -42.27268 | -67.80478 | 11100 ft | 189 kts | 175° |
| 2026-04-26 14:10 | -42.28575 | -67.80323 | 11100 ft | 189 kts | 175° |
| 2026-04-26 14:10 | -42.29885 | -67.80168 | 11100 ft | 189 kts | 175° |
| 2026-04-26 14:10 | -42.31195 | -67.80012 | 11100 ft | 189 kts | 175° |
| 2026-04-26 14:11 | -42.33814 | -67.79700 | 11100 ft | 189 kts | 175° |
| 2026-04-26 14:11 | -42.35125 | -67.79543 | 11100 ft | 189 kts | 175° |
| 2026-04-26 14:11 | -42.36433 | -67.79386 | 11100 ft | 189 kts | 175° |
| 2026-04-26 14:12 | -42.37759 | -67.79228 | 11100 ft | 189 kts | 175° |
| 2026-04-26 14:12 | -42.39069 | -67.79071 | 11100 ft | 189 kts | 175° |
| 2026-04-26 14:12 | -42.40378 | -67.78914 | 11100 ft | 189 kts | 175° |
| 2026-04-26 14:12 | -42.41686 | -67.78757 | 11100 ft | 189 kts | 175° |
| 2026-04-26 14:13 | -42.44306 | -67.78444 | 11100 ft | 189 kts | 175° |
| 2026-04-26 14:13 | -42.45599 | -67.78291 | 11100 ft | 189 kts | 175° |
| 2026-04-26 14:13 | -42.46908 | -67.78136 | 11100 ft | 189 kts | 175° |
| 2026-04-26 14:14 | -42.48218 | -67.77979 | 11100 ft | 189 kts | 175° |
| 2026-04-26 14:14 | -42.49530 | -67.77822 | 11100 ft | 189 kts | 175° |
| 2026-04-26 14:14 | -42.50838 | -67.77666 | 11100 ft | 189 kts | 175° |
| 2026-04-26 14:14 | -42.52145 | -67.77508 | 11100 ft | 189 kts | 175° |
| 2026-04-26 14:15 | -42.53458 | -67.77351 | 11100 ft | 189 kts | 175° |
| 2026-04-26 14:15 | -42.54768 | -67.77193 | 11100 ft | 189 kts | 175° |
| 2026-04-26 14:15 | -42.56077 | -67.77035 | 11100 ft | 189 kts | 175° |
| 2026-04-26 14:15 | -42.57381 | -67.76878 | 11100 ft | 189 kts | 175° |
| 2026-04-26 14:16 | -42.58692 | -67.76720 | 11100 ft | 189 kts | 175° |
| 2026-04-26 14:16 | -42.60003 | -67.76562 | 11100 ft | 189 kts | 175° |
| 2026-04-26 14:16 | -42.61299 | -67.76405 | 11100 ft | 189 kts | 175° |
| 2026-04-26 14:16 | -42.62609 | -67.76249 | 11100 ft | 189 kts | 175° |
| 2026-04-26 14:17 | -42.63919 | -67.76093 | 11100 ft | 189 kts | 175° |
| 2026-04-26 14:17 | -42.65225 | -67.75937 | 11100 ft | 189 kts | 175° |
| 2026-04-26 14:17 | -42.66536 | -67.75780 | 11100 ft | 189 kts | 175° |
| 2026-04-26 14:17 | -42.67847 | -67.75622 | 11100 ft | 189 kts | 175° |
| 2026-04-26 14:18 | -42.69160 | -67.75463 | 11100 ft | 189 kts | 175° |
| 2026-04-26 14:18 | -42.70468 | -67.75305 | 11100 ft | 189 kts | 175° |
| 2026-04-26 14:18 | -42.71776 | -67.75147 | 11100 ft | 189 kts | 175° |
| 2026-04-26 14:18 | -42.73068 | -67.74991 | 11100 ft | 189 kts | 175° |
| 2026-04-26 14:19 | -42.74375 | -67.74832 | 11100 ft | 189 kts | 175° |
| 2026-04-26 14:19 | -42.75683 | -67.74674 | 11100 ft | 189 kts | 175° |
| 2026-04-26 14:19 | -42.76994 | -67.74515 | 11100 ft | 189 kts | 175° |
| 2026-04-26 14:19 | -42.78302 | -67.74356 | 11100 ft | 189 kts | 175° |
| 2026-04-26 14:20 | -42.79609 | -67.74197 | 11100 ft | 189 kts | 175° |
| 2026-04-26 14:20 | -42.80917 | -67.74040 | 11100 ft | 189 kts | 175° |
| 2026-04-26 14:20 | -42.82231 | -67.73883 | 11100 ft | 189 kts | 175° |
| 2026-04-26 14:20 | -42.83539 | -67.73726 | 11100 ft | 189 kts | 175° |
| 2026-04-26 14:21 | -42.84851 | -67.73567 | 11100 ft | 189 kts | 175° |
| 2026-04-26 14:21 | -42.86163 | -67.73408 | 11100 ft | 189 kts | 175° |
| 2026-04-26 14:21 | -42.87470 | -67.73250 | 11100 ft | 189 kts | 175° |
| 2026-04-26 14:21 | -42.88779 | -67.73091 | 11100 ft | 189 kts | 175° |
| 2026-04-26 14:22 | -42.90069 | -67.72934 | 11100 ft | 189 kts | 175° |
| 2026-04-26 14:22 | -42.91381 | -67.72774 | 11100 ft | 189 kts | 175° |
| 2026-04-26 14:22 | -42.92690 | -67.72614 | 11100 ft | 189 kts | 175° |
| 2026-04-26 14:22 | -42.93999 | -67.72455 | 11100 ft | 189 kts | 175° |
| 2026-04-26 14:23 | -42.95312 | -67.72295 | 11100 ft | 189 kts | 175° |
| 2026-04-26 14:23 | -42.96620 | -67.72135 | 11100 ft | 189 kts | 175° |
| 2026-04-26 14:23 | -42.97913 | -67.71977 | 11100 ft | 189 kts | 175° |
| 2026-04-26 14:23 | -42.99221 | -67.71820 | 11100 ft | 189 kts | 175° |
| 2026-04-26 14:24 | -43.00533 | -67.71662 | 11100 ft | 189 kts | 175° |
| 2026-04-26 14:24 | -43.01878 | -67.71499 | 11100 ft | 189 kts | 175° |
| 2026-04-26 14:24 | -43.03187 | -67.71340 | 11100 ft | 189 kts | 175° |
| 2026-04-26 14:24 | -43.04480 | -67.71182 | 11100 ft | 189 kts | 175° |
| 2026-04-26 14:25 | -43.05804 | -67.71020 | 11100 ft | 189 kts | 175° |
| 2026-04-26 14:25 | -43.07096 | -67.70862 | 11100 ft | 189 kts | 175° |
| 2026-04-26 14:25 | -43.08410 | -67.70702 | 11100 ft | 189 kts | 175° |
| 2026-04-26 14:25 | -43.09723 | -67.70542 | 11100 ft | 189 kts | 175° |
| 2026-04-26 14:26 | -43.11029 | -67.70384 | 11100 ft | 189 kts | 175° |
| 2026-04-26 14:26 | -43.12345 | -67.70225 | 11100 ft | 189 kts | 175° |
| 2026-04-26 14:26 | -43.13638 | -67.70069 | 11100 ft | 189 kts | 175° |
| 2026-04-26 14:26 | -43.14951 | -67.69911 | 11100 ft | 189 kts | 175° |
| 2026-04-26 14:27 | -43.16259 | -67.69754 | 11100 ft | 189 kts | 175° |
| 2026-04-26 14:27 | -43.17568 | -67.69599 | 11100 ft | 189 kts | 175° |
| 2026-04-26 14:27 | -43.18879 | -67.69444 | 11100 ft | 189 kts | 175° |
| 2026-04-26 14:27 | -43.20190 | -67.69288 | 11100 ft | 189 kts | 175° |
| 2026-04-26 14:28 | -43.21500 | -67.69132 | 11100 ft | 189 kts | 175° |
| 2026-04-26 14:28 | -43.22813 | -67.68975 | 11100 ft | 189 kts | 175° |
| 2026-04-26 14:28 | -43.24122 | -67.68818 | 11100 ft | 189 kts | 175° |
| 2026-04-26 14:28 | -43.25431 | -67.68661 | 11100 ft | 189 kts | 175° |
| 2026-04-26 14:29 | -43.26742 | -67.68503 | 11100 ft | 189 kts | 175° |
| 2026-04-26 14:29 | -43.28039 | -67.68347 | 11100 ft | 189 kts | 175° |
| 2026-04-26 14:29 | -43.29348 | -67.68189 | 11100 ft | 189 kts | 175° |
| 2026-04-26 14:29 | -43.30660 | -67.68031 | 11100 ft | 189 kts | 175° |
| 2026-04-26 14:30 | -43.31972 | -67.67873 | 11100 ft | 189 kts | 175° |
| 2026-04-26 14:30 | -43.33280 | -67.67715 | 11100 ft | 189 kts | 175° |
| 2026-04-26 14:30 | -43.34615 | -67.67554 | 11100 ft | 189 kts | 175° |
| 2026-04-26 14:30 | -43.35937 | -67.67397 | 11100 ft | 189 kts | 175° |
| 2026-04-26 14:31 | -43.37246 | -67.67241 | 11100 ft | 189 kts | 175° |
| 2026-04-26 14:31 | -43.38555 | -67.67085 | 11100 ft | 189 kts | 175° |
| 2026-04-26 14:31 | -43.39868 | -67.66927 | 11100 ft | 189 kts | 175° |
| 2026-04-26 14:31 | -43.41183 | -67.66769 | 11100 ft | 189 kts | 175° |
| 2026-04-26 14:32 | -43.42492 | -67.66611 | 11100 ft | 189 kts | 175° |
| 2026-04-26 14:32 | -43.43801 | -67.66453 | 11100 ft | 189 kts | 175° |
| 2026-04-26 14:32 | -43.44669 | -67.66348 | 11100 ft | 189 kts | 175° |
| 2026-04-26 14:32 | -43.46407 | -67.66137 | 11100 ft | 189 kts | 175° |
| 2026-04-26 14:33 | -43.47291 | -67.66030 | 11100 ft | 189 kts | 175° |
| 2026-04-26 14:33 | -43.48598 | -67.65872 | 11100 ft | 189 kts | 175° |
| 2026-04-26 14:33 | -43.49910 | -67.65712 | 11100 ft | 189 kts | 175° |
| 2026-04-26 14:33 | -43.51221 | -67.65553 | 11100 ft | 189 kts | 175° |
| 2026-04-26 14:34 | -43.52534 | -67.65394 | 11100 ft | 189 kts | 175° |
| 2026-04-26 14:34 | -43.53828 | -67.65238 | 11100 ft | 189 kts | 175° |
| 2026-04-26 14:34 | -43.55139 | -67.65082 | 11100 ft | 189 kts | 175° |
| 2026-04-26 14:34 | -43.56452 | -67.64924 | 11100 ft | 189 kts | 175° |
| 2026-04-26 14:35 | -43.57766 | -67.64766 | 11100 ft | 189 kts | 175° |
| 2026-04-26 14:35 | -43.59074 | -67.64607 | 11100 ft | 189 kts | 175° |
| 2026-04-26 14:35 | -43.60387 | -67.64448 | 11100 ft | 189 kts | 175° |
| 2026-04-26 14:35 | -43.61683 | -67.64290 | 11100 ft | 189 kts | 175° |
| 2026-04-26 14:36 | -43.62994 | -67.64131 | 11100 ft | 189 kts | 175° |
| 2026-04-26 14:36 | -43.64301 | -67.63972 | 11100 ft | 189 kts | 175° |
| 2026-04-26 14:36 | -43.65612 | -67.63812 | 11100 ft | 189 kts | 175° |
| 2026-04-26 14:36 | -43.66924 | -67.63652 | 11100 ft | 189 kts | 175° |
| 2026-04-26 14:37 | -43.68233 | -67.63492 | 11100 ft | 189 kts | 175° |
| 2026-04-26 14:37 | -43.69546 | -67.63332 | 11100 ft | 189 kts | 175° |
| 2026-04-26 14:37 | -43.70858 | -67.63172 | 11100 ft | 189 kts | 175° |
| 2026-04-26 14:37 | -43.72165 | -67.63013 | 11100 ft | 189 kts | 175° |
| 2026-04-26 14:38 | -43.73476 | -67.62856 | 11100 ft | 189 kts | 175° |
| 2026-04-26 14:38 | -43.74774 | -67.62699 | 11100 ft | 189 kts | 175° |
| 2026-04-26 14:38 | -43.76083 | -67.62540 | 11100 ft | 189 kts | 175° |
| 2026-04-26 14:38 | -43.77396 | -67.62380 | 11100 ft | 189 kts | 175° |
| 2026-04-26 14:39 | -43.78708 | -67.62220 | 11100 ft | 189 kts | 175° |
| 2026-04-26 14:39 | -43.80019 | -67.62060 | 11100 ft | 189 kts | 175° |
| 2026-04-26 14:39 | -43.81328 | -67.61899 | 11100 ft | 189 kts | 175° |
| 2026-04-26 14:39 | -43.82642 | -67.61738 | 11100 ft | 189 kts | 175° |
| 2026-04-26 14:40 | -43.83937 | -67.61580 | 11100 ft | 189 kts | 175° |
| 2026-04-26 14:40 | -43.85251 | -67.61418 | 11100 ft | 189 kts | 175° |
| 2026-04-26 14:40 | -43.86559 | -67.61258 | 11100 ft | 189 kts | 175° |
| 2026-04-26 14:40 | -43.87870 | -67.61097 | 11100 ft | 189 kts | 175° |
| 2026-04-26 14:41 | -43.89181 | -67.60936 | 11100 ft | 189 kts | 175° |
| 2026-04-26 14:41 | -43.90492 | -67.60776 | 11100 ft | 189 kts | 175° |
| 2026-04-26 14:41 | -43.91806 | -67.60617 | 11100 ft | 189 kts | 175° |
| 2026-04-26 14:41 | -43.93119 | -67.60457 | 11100 ft | 189 kts | 175° |
| 2026-04-26 14:42 | -43.94429 | -67.60297 | 11100 ft | 189 kts | 175° |
| 2026-04-26 14:42 | -43.95740 | -67.60137 | 11100 ft | 189 kts | 175° |
| 2026-04-26 14:42 | -43.97051 | -67.59976 | 11100 ft | 189 kts | 175° |
| 2026-04-26 14:42 | -43.98373 | -67.59813 | 11100 ft | 189 kts | 175° |
| 2026-04-26 14:43 | -43.99696 | -67.59650 | 11100 ft | 189 kts | 175° |
| 2026-04-26 14:43 | -44.01007 | -67.59488 | 11100 ft | 189 kts | 175° |
| 2026-04-26 14:43 | -44.02301 | -67.59329 | 11100 ft | 189 kts | 175° |
| 2026-04-26 14:43 | -44.03612 | -67.59167 | 11100 ft | 189 kts | 175° |
| 2026-04-26 14:44 | -44.04923 | -67.59005 | 11100 ft | 189 kts | 175° |
| 2026-04-26 14:44 | -44.06232 | -67.58843 | 11100 ft | 189 kts | 175° |
| 2026-04-26 14:44 | -44.07544 | -67.58681 | 11100 ft | 189 kts | 175° |
| 2026-04-26 14:44 | -44.08858 | -67.58520 | 11100 ft | 189 kts | 175° |
| 2026-04-26 14:45 | -44.10204 | -67.58356 | 11100 ft | 189 kts | 175° |
| 2026-04-26 14:45 | -44.11071 | -67.58250 | 11100 ft | 189 kts | 175° |
| 2026-04-26 14:45 | -44.12806 | -67.58037 | 11100 ft | 189 kts | 175° |
| 2026-04-26 14:45 | -44.14122 | -67.57875 | 11100 ft | 189 kts | 175° |
| 2026-04-26 14:46 | -44.15434 | -67.57712 | 11100 ft | 189 kts | 175° |
| 2026-04-26 14:46 | -44.16743 | -67.57550 | 11100 ft | 189 kts | 175° |
| 2026-04-26 14:46 | -44.18058 | -67.57387 | 11100 ft | 189 kts | 175° |
| 2026-04-26 14:46 | -44.19368 | -67.57225 | 11100 ft | 189 kts | 175° |
| 2026-04-26 14:47 | -44.20678 | -67.57062 | 11100 ft | 189 kts | 175° |
| 2026-04-26 14:47 | -44.21989 | -67.56899 | 11100 ft | 189 kts | 175° |
| 2026-04-26 14:47 | -44.23283 | -67.56738 | 11100 ft | 189 kts | 175° |
| 2026-04-26 14:47 | -44.24591 | -67.56576 | 11100 ft | 189 kts | 175° |
| 2026-04-26 14:48 | -44.25910 | -67.56412 | 11100 ft | 189 kts | 175° |
| 2026-04-26 14:48 | -44.27221 | -67.56250 | 11100 ft | 189 kts | 175° |
| 2026-04-26 14:48 | -44.28519 | -67.56091 | 11100 ft | 189 kts | 175° |
| 2026-04-26 14:48 | -44.29831 | -67.55930 | 11100 ft | 189 kts | 175° |
| 2026-04-26 14:49 | -44.31143 | -67.55767 | 11100 ft | 189 kts | 175° |
| 2026-04-26 14:49 | -44.32457 | -67.55604 | 11100 ft | 189 kts | 175° |
| 2026-04-26 14:49 | -44.33771 | -67.55441 | 11100 ft | 189 kts | 175° |
| 2026-04-26 14:49 | -44.35081 | -67.55278 | 11100 ft | 189 kts | 175° |
| 2026-04-26 14:50 | -44.36391 | -67.55114 | 11100 ft | 189 kts | 175° |
| 2026-04-26 14:50 | -44.37705 | -67.54950 | 11100 ft | 189 kts | 175° |
| 2026-04-26 14:50 | -44.39012 | -67.54787 | 11100 ft | 189 kts | 175° |
| 2026-04-26 14:50 | -44.40309 | -67.54625 | 11100 ft | 189 kts | 175° |
| 2026-04-26 14:51 | -44.41618 | -67.54461 | 11100 ft | 189 kts | 175° |
| 2026-04-26 14:51 | -44.42931 | -67.54297 | 11100 ft | 189 kts | 175° |
| 2026-04-26 14:51 | -44.44242 | -67.54132 | 11100 ft | 189 kts | 175° |
| 2026-04-26 14:51 | -44.45558 | -67.53970 | 11100 ft | 189 kts | 175° |
| 2026-04-26 14:52 | -44.46871 | -67.53808 | 11100 ft | 189 kts | 175° |
| 2026-04-26 14:52 | -44.48164 | -67.53647 | 11100 ft | 189 kts | 175° |
| 2026-04-26 14:52 | -44.49480 | -67.53483 | 11100 ft | 189 kts | 175° |
| 2026-04-26 14:52 | -44.50789 | -67.53320 | 11100 ft | 189 kts | 175° |
| 2026-04-26 14:53 | -44.52100 | -67.53156 | 11100 ft | 189 kts | 175° |
| 2026-04-26 14:53 | -44.53411 | -67.52991 | 11100 ft | 189 kts | 175° |
| 2026-04-26 14:53 | -44.54723 | -67.52827 | 11100 ft | 189 kts | 175° |
| 2026-04-26 14:53 | -44.56031 | -67.52662 | 11100 ft | 189 kts | 175° |
| 2026-04-26 14:54 | -44.57347 | -67.52497 | 11100 ft | 189 kts | 175° |
| 2026-04-26 14:54 | -44.58659 | -67.52332 | 11100 ft | 189 kts | 175° |
| 2026-04-26 14:54 | -44.59970 | -67.52167 | 11100 ft | 189 kts | 175° |
| 2026-04-26 14:54 | -44.61283 | -67.52001 | 11100 ft | 189 kts | 175° |
| 2026-04-26 14:55 | -44.62596 | -67.51836 | 11100 ft | 189 kts | 175° |
| 2026-04-26 14:55 | -44.63908 | -67.51673 | 11100 ft | 189 kts | 175° |
| 2026-04-26 14:55 | -44.65223 | -67.51510 | 11100 ft | 189 kts | 175° |
| 2026-04-26 14:55 | -44.66519 | -67.51348 | 11100 ft | 189 kts | 175° |
| 2026-04-26 14:56 | -44.67831 | -67.51184 | 11100 ft | 189 kts | 175° |
| 2026-04-26 14:56 | -44.69143 | -67.51018 | 11100 ft | 189 kts | 175° |
| 2026-04-26 14:56 | -44.70456 | -67.50853 | 11100 ft | 189 kts | 175° |
| 2026-04-26 14:56 | -44.71771 | -67.50687 | 11100 ft | 189 kts | 175° |
| 2026-04-26 14:57 | -44.73051 | -67.50525 | 11100 ft | 189 kts | 175° |
| 2026-04-26 14:57 | -44.74396 | -67.50355 | 11100 ft | 189 kts | 175° |
| 2026-04-26 14:57 | -44.75709 | -67.50189 | 11100 ft | 189 kts | 175° |
| 2026-04-26 14:57 | -44.77028 | -67.50022 | 11100 ft | 189 kts | 175° |
| 2026-04-26 14:58 | -44.78337 | -67.49857 | 11100 ft | 189 kts | 175° |
| 2026-04-26 14:58 | -44.79634 | -67.49693 | 11100 ft | 189 kts | 175° |
| 2026-04-26 14:58 | -44.80949 | -67.49527 | 11100 ft | 189 kts | 175° |
| 2026-04-26 14:58 | -44.82263 | -67.49363 | 11100 ft | 189 kts | 175° |
| 2026-04-26 14:59 | -44.83573 | -67.49199 | 11100 ft | 189 kts | 175° |
| 2026-04-26 14:59 | -44.84889 | -67.49033 | 11100 ft | 189 kts | 175° |
| 2026-04-26 14:59 | -44.86200 | -67.48867 | 11100 ft | 189 kts | 175° |
| 2026-04-26 14:59 | -44.87066 | -67.48758 | 11100 ft | 189 kts | 175° |
| 2026-04-26 15:00 | -44.88806 | -67.48537 | 11100 ft | 189 kts | 175° |
| 2026-04-26 15:00 | -44.90120 | -67.48370 | 11100 ft | 189 kts | 175° |
| 2026-04-26 15:00 | -44.91433 | -67.48203 | 11100 ft | 189 kts | 175° |
| 2026-04-26 15:00 | -44.92747 | -67.48035 | 11100 ft | 189 kts | 175° |
| 2026-04-26 15:01 | -44.94060 | -67.47868 | 11100 ft | 189 kts | 175° |
| 2026-04-26 15:01 | -44.95370 | -67.47701 | 11100 ft | 189 kts | 175° |
| 2026-04-26 15:01 | -44.96682 | -67.47534 | 11100 ft | 189 kts | 175° |
| 2026-04-26 15:01 | -44.97980 | -67.47369 | 11100 ft | 189 kts | 175° |
| 2026-04-26 15:02 | -44.99292 | -67.47202 | 11100 ft | 189 kts | 175° |
| 2026-04-26 15:02 | -45.00604 | -67.47036 | 11100 ft | 189 kts | 175° |
| 2026-04-26 15:02 | -45.01918 | -67.46871 | 11100 ft | 189 kts | 175° |
| 2026-04-26 15:02 | -45.03229 | -67.46705 | 11100 ft | 189 kts | 175° |
| 2026-04-26 15:03 | -45.04541 | -67.46539 | 11100 ft | 189 kts | 175° |
| 2026-04-26 15:03 | -45.05855 | -67.46372 | 11100 ft | 189 kts | 175° |
| 2026-04-26 15:03 | -45.06742 | -67.46259 | 11100 ft | 189 kts | 175° |
| 2026-04-26 15:03 | -45.08060 | -67.46090 | 11100 ft | 189 kts | 175° |
| 2026-04-26 15:04 | -45.09355 | -67.45925 | 11100 ft | 189 kts | 175° |
| 2026-04-26 15:04 | -45.10666 | -67.45757 | 11100 ft | 189 kts | 175° |
| 2026-04-26 15:04 | -45.11978 | -67.45589 | 11100 ft | 189 kts | 175° |
| 2026-04-26 15:04 | -45.13292 | -67.45421 | 11100 ft | 189 kts | 175° |
| 2026-04-26 15:05 | -45.14604 | -67.45252 | 11100 ft | 189 kts | 175° |
| 2026-04-26 15:05 | -45.15474 | -67.45141 | 11100 ft | 189 kts | 175° |
| 2026-04-26 15:05 | -45.17232 | -67.44915 | 11100 ft | 189 kts | 175° |
| 2026-04-26 15:05 | -45.18535 | -67.44750 | 11100 ft | 189 kts | 175° |
| 2026-04-26 15:06 | -45.19850 | -67.44583 | 11100 ft | 189 kts | 175° |
| 2026-04-26 15:06 | -45.21163 | -67.44417 | 11100 ft | 189 kts | 175° |
| 2026-04-26 15:06 | -45.22461 | -67.44251 | 11100 ft | 189 kts | 175° |
| 2026-04-26 15:06 | -45.23775 | -67.44083 | 11100 ft | 189 kts | 175° |
| 2026-04-26 15:07 | -45.26402 | -67.43746 | 11100 ft | 189 kts | 175° |
| 2026-04-26 15:07 | -45.27711 | -67.43577 | 11100 ft | 189 kts | 175° |
| 2026-04-26 15:07 | -45.29025 | -67.43408 | 11100 ft | 189 kts | 175° |
| 2026-04-26 15:08 | -45.30338 | -67.43239 | 11100 ft | 189 kts | 175° |
| 2026-04-26 15:08 | -45.31651 | -67.43069 | 11100 ft | 189 kts | 175° |
| 2026-04-26 15:08 | -45.32966 | -67.42900 | 11100 ft | 189 kts | 175° |
| 2026-04-26 15:08 | -45.34276 | -67.42730 | 11100 ft | 189 kts | 175° |
| 2026-04-26 15:09 | -45.35590 | -67.42561 | 11100 ft | 189 kts | 175° |
| 2026-04-26 15:09 | -45.36903 | -67.42393 | 11100 ft | 189 kts | 175° |
| 2026-04-26 15:09 | -45.38197 | -67.42228 | 11100 ft | 189 kts | 175° |
| 2026-04-26 15:09 | -45.39508 | -67.42060 | 11100 ft | 189 kts | 175° |
| 2026-04-26 15:10 | -45.40824 | -67.41891 | 11100 ft | 189 kts | 175° |
| 2026-04-26 15:10 | -45.41712 | -67.41777 | 11100 ft | 189 kts | 175° |
| 2026-04-26 15:10 | -45.43451 | -67.41553 | 11100 ft | 189 kts | 175° |
| 2026-04-26 15:10 | -45.44767 | -67.41382 | 11100 ft | 189 kts | 175° |
| 2026-04-26 15:11 | -45.46079 | -67.41212 | 11100 ft | 189 kts | 175° |
| 2026-04-26 15:11 | -45.47411 | -67.41040 | 11100 ft | 189 kts | 175° |
| 2026-04-26 15:11 | -45.48641 | -67.40622 | 11105 ft | 169 kts | 154° |
| 2026-04-26 15:11 | -45.49568 | -67.39787 | 11064 ft | 143 kts | 144° |
| 2026-04-26 15:12 | -45.50322 | -67.38996 | 10951 ft | 128 kts | 144° |
| 2026-04-26 15:12 | -45.51047 | -67.38274 | 10697 ft | 128 kts | 146° |
| 2026-04-26 15:12 | -45.51812 | -67.37578 | 10317 ft | 134 kts | 148° |
| 2026-04-26 15:12 | -45.52631 | -67.36881 | 9945 ft | 136 kts | 149° |
| 2026-04-26 15:13 | -45.53456 | -67.36199 | 9583 ft | 137 kts | 150° |
| 2026-04-26 15:13 | -45.54283 | -67.35527 | 9239 ft | 136 kts | 150° |
| 2026-04-26 15:13 | -45.55107 | -67.34862 | 8906 ft | 135 kts | 150° |
| 2026-04-26 15:13 | -45.55919 | -67.34209 | 8571 ft | 134 kts | 150° |
| 2026-04-26 15:14 | -45.56734 | -67.33554 | 8228 ft | 134 kts | 150° |
| 2026-04-26 15:14 | -45.57545 | -67.32904 | 7890 ft | 133 kts | 150° |
| 2026-04-26 15:14 | -45.58336 | -67.32269 | 7564 ft | 132 kts | 150° |
| 2026-04-26 15:14 | -45.59138 | -67.31626 | 7233 ft | 131 kts | 150° |
| 2026-04-26 15:15 | -45.59935 | -67.30986 | 6900 ft | 131 kts | 150° |
| 2026-04-26 15:15 | -45.60729 | -67.30348 | 6569 ft | 130 kts | 150° |
| 2026-04-26 15:15 | -45.61533 | -67.29703 | 6235 ft | 129 kts | 150° |
| 2026-04-26 15:15 | -45.62317 | -67.29074 | 5910 ft | 129 kts | 150° |
| 2026-04-26 15:16 | -45.63086 | -67.28456 | 5589 ft | 128 kts | 150° |
| 2026-04-26 15:16 | -45.63863 | -67.27832 | 5266 ft | 128 kts | 150° |
| 2026-04-26 15:16 | -45.64672 | -67.27181 | 4948 ft | 144 kts | 150° |
| 2026-04-26 15:16 | -45.65567 | -67.26462 | 4750 ft | 150 kts | 150° |
| 2026-04-26 15:17 | -45.66481 | -67.25726 | 4568 ft | 151 kts | 150° |
| 2026-04-26 15:17 | -45.67090 | -67.25236 | 4450 ft | 152 kts | 150° |
| 2026-04-26 15:17 | -45.68324 | -67.24243 | 4214 ft | 152 kts | 150° |
| 2026-04-26 15:17 | -45.69242 | -67.23503 | 4039 ft | 151 kts | 150° |
| 2026-04-26 15:18 | -45.70163 | -67.22762 | 3864 ft | 151 kts | 150° |
| 2026-04-26 15:18 | -45.71081 | -67.22022 | 3689 ft | 151 kts | 150° |
| 2026-04-26 15:18 | -45.71944 | -67.21326 | 3504 ft | 134 kts | 150° |
| 2026-04-26 15:18 | -45.72724 | -67.20697 | 3256 ft | 125 kts | 150° |
| 2026-04-26 15:19 | -45.73470 | -67.20096 | 2978 ft | 122 kts | 150° |
| 2026-04-26 15:19 | -45.74207 | -67.19501 | 2670 ft | 122 kts | 150° |
| 2026-04-26 15:19 | -45.74939 | -67.18911 | 2351 ft | 122 kts | 150° |
| 2026-04-26 15:19 | -45.75719 | -67.18710 | 2196 ft | 108 kts | 200° |
| 2026-04-26 15:20 | -45.76076 | -67.19527 | 2352 ft | 110 kts | 265° |
| 2026-04-26 15:20 | -45.76083 | -67.20597 | 2916 ft | 120 kts | 272° |
| 2026-04-26 15:20 | -45.75928 | -67.21908 | 2865 ft | 147 kts | 281° |
| 2026-04-26 15:20 | -45.75719 | -67.23474 | 2703 ft | 173 kts | 279° |
| 2026-04-26 15:21 | -45.75592 | -67.25266 | 2546 ft | 186 kts | 272° |
| 2026-04-26 15:21 | -45.75661 | -67.27127 | 2440 ft | 188 kts | 263° |
| 2026-04-26 15:21 | -45.75928 | -67.28957 | 2430 ft | 185 kts | 255° |
| 2026-04-26 15:21 | -45.76266 | -67.30570 | 2453 ft | 159 kts | 252° |
| 2026-04-26 15:22 | -45.76584 | -67.32069 | 2224 ft | 157 kts | 254° |
| 2026-04-26 15:22 | -45.76855 | -67.33593 | 1902 ft | 159 kts | 257° |
| 2026-04-26 15:22 | -45.77072 | -67.35154 | 1602 ft | 159 kts | 260° |
| 2026-04-26 15:22 | -45.77254 | -67.36709 | 1352 ft | 156 kts | 261° |
| 2026-04-26 15:23 | -45.77415 | -67.38083 | 1192 ft | 123 kts | 260° |
| 2026-04-26 15:23 | -45.77542 | -67.39213 | 986 ft | 107 kts | 260° |
| 2026-04-26 15:23 | -45.77681 | -67.40206 | 846 ft | 101 kts | 258° |
| 2026-04-26 15:23 | -45.77822 | -67.41208 | 732 ft | 101 kts | 259° |
| 2026-04-26 15:24 | -45.77953 | -67.42180 | 602 ft | 97 kts | 259° |
| 2026-04-26 15:24 | -45.78074 | -67.43101 | 465 ft | 90 kts | 259° |
| 2026-04-26 15:24 | -45.78182 | -67.43936 | 336 ft | 81 kts | 259° |
| 2026-04-26 15:24 | -45.78279 | -67.44693 | 228 ft | 74 kts | 260° |
| 2026-04-26 15:25 | -45.78369 | -67.45370 | 200 ft | 64 kts | 259° |
| 2026-04-26 15:25 | -45.78419 | -67.45754 | 199 ft | 52 kts | 259° |
| 2026-04-26 15:25 | -45.78491 | -67.46305 | 199 ft | 34 kts | 259° |
| 2026-04-26 15:25 | -45.78526 | -67.46576 | 199 ft | 24 kts | 259° |
| 2026-04-26 15:26 | -45.78551 | -67.46774 | 199 ft | 13 kts | 259° |
| 2026-04-26 15:26 | -45.78574 | -67.46945 | 199 ft | 22 kts | 259° |
| 2026-04-26 15:26 | -45.78608 | -67.47194 | 199 ft | 23 kts | 258° |
| 2026-04-26 15:26 | -45.78711 | -67.47290 | 199 ft | 24 kts | 157° |
| 2026-04-26 15:27 | -45.78853 | -67.47219 | 199 ft | 17 kts | 161° |
| 2026-04-26 15:27 | -45.78918 | -67.47287 | 199 ft | 18 kts | 267° |
| 2026-04-26 15:27 | -45.78924 | -67.47443 | 199 ft | 14 kts | 267° |
| 2026-04-26 15:27 | -45.78971 | -67.47522 | 199 ft | 12 kts | 181° |
| 2026-04-26 15:28 | -45.79013 | -67.47526 | 199 ft | 0 kts | 223° |
| 2026-04-26 15:29 | -45.79029 | -67.47533 | 199 ft | 10 kts | 176° |
| 2026-04-26 15:29 | -45.79048 | -67.47529 | 199 ft | 1 kts | 172° |